Time;durP1;ratioP1;P1;durP2;ratioP2;P2;SDS_P1;SDS_P2;PMS_P1;PMS_P2;Temp;Humidity;BMP_temperature;BMP_pressure;BME280_temperature;BME280_humidity;BME280_pressure;Samples;Min_cycle;Max_cycle;Signal;HPM_P1;HPM_P2
2022/07/27 00:00:19;;;;;;;0.52;0.52;;;;;;;;;;5052083;28;20025;-73
2022/07/27 00:02:44;;;;;;;0.30;0.30;;;;;;;;;;5052014;28;20021;-73
2022/07/27 00:05:11;;;;;;;0.30;0.30;;;;;;;;;;5053428;28;20036;-74
2022/07/27 00:07:38;;;;;;;1.85;1.08;;;;;;;;;;5053554;28;20021;-73
2022/07/27 00:10:04;;;;;;;0.30;0.30;;;;;;;;;;5051953;28;20021;-72
2022/07/27 00:12:29;;;;;;;0.50;0.50;;;;;;;;;;5052763;28;20076;-73
2022/07/27 00:14:57;;;;;;;0.85;0.85;;;;;;;;;;5053077;28;20094;-73
2022/07/27 00:17:23;;;;;;;0.30;0.30;;;;;;;;;;5052192;28;20396;-74
2022/07/27 00:19:49;;;;;;;0.30;0.30;;;;;;;;;;5053416;28;20056;-74
2022/07/27 00:22:15;;;;;;;0.20;0.20;;;;;;;;;;5053526;28;20060;-73
2022/07/27 00:24:41;;;;;;;0.30;0.30;;;;;;;;;;5053491;28;20029;-74
2022/07/27 00:27:07;;;;;;;0.20;0.20;;;;;;;;;;5053161;28;20108;-74
2022/07/27 00:29:33;;;;;;;0.30;0.30;;;;;;;;;;5051859;28;20041;-74
2022/07/27 00:31:58;;;;;;;0.20;0.20;;;;;;;;;;5053409;28;20045;-74
2022/07/27 00:34:24;;;;;;;0.40;0.40;;;;;;;;;;5053064;28;20094;-74
2022/07/27 00:36:49;;;;;;;0.30;0.30;;;;;;;;;;5053088;28;20104;-74
2022/07/27 00:39:15;;;;;;;0.40;0.40;;;;;;;;;;5053055;28;20025;-73
2022/07/27 00:41:40;;;;;;;0.20;0.20;;;;;;;;;;5053117;28;20033;-73
2022/07/27 00:44:06;;;;;;;0.20;0.20;;;;;;;;;;5052697;28;20025;-72
2022/07/27 00:46:32;;;;;;;0.20;0.20;;;;;;;;;;5051695;28;20037;-72
2022/07/27 00:48:58;;;;;;;0.20;0.20;;;;;;;;;;5053230;28;20025;-73
2022/07/27 00:51:24;;;;;;;0.20;0.20;;;;;;;;;;5051654;28;20036;-74
2022/07/27 00:53:53;;;;;;;0.57;0.57;;;;;;;;;;5052882;28;20025;-74
2022/07/27 00:56:19;;;;;;;0.22;0.22;;;;;;;;;;5052932;28;20032;-75
2022/07/27 00:58:47;;;;;;;0.20;0.20;;;;;;;;;;5035149;28;20067;-74
2022/07/27 01:01:13;;;;;;;0.30;0.30;;;;;;;;;;5053048;28;20102;-74
2022/07/27 01:03:38;;;;;;;0.30;0.30;;;;;;;;;;5051517;28;20474;-74
2022/07/27 01:06:04;;;;;;;0.20;0.20;;;;;;;;;;5051688;28;20427;-73
2022/07/27 01:08:29;;;;;;;0.47;0.47;;;;;;;;;;5051653;28;20021;-73
2022/07/27 01:10:55;;;;;;;0.55;0.55;;;;;;;;;;5051438;28;20029;-74
2022/07/27 01:13:21;;;;;;;0.25;0.25;;;;;;;;;;5052655;28;20080;-74
2022/07/27 01:15:47;;;;;;;0.22;0.22;;;;;;;;;;5052729;28;20025;-73
2022/07/27 01:18:27;;;;;;;0.73;0.73;;;;;;;;;;5052607;28;20025;-73
2022/07/27 01:20:53;;;;;;;0.30;0.30;;;;;;;;;;5054629;28;20106;-74
2022/07/27 01:23:19;;;;;;;0.20;0.20;;;;;;;;;;5056503;28;20064;-73
2022/07/27 01:25:44;;;;;;;0.30;0.30;;;;;;;;;;5038577;28;20029;-73
2022/07/27 01:28:10;;;;;;;0.22;0.22;;;;;;;;;;5054575;28;20037;-73
2022/07/27 01:30:35;;;;;;;0.30;0.30;;;;;;;;;;5056406;28;20032;-73
2022/07/27 01:33:05;;;;;;;0.30;0.30;;;;;;;;;;5056218;28;21695;-73
2022/07/27 01:35:30;;;;;;;0.22;0.22;;;;;;;;;;5056590;28;20068;-73
2022/07/27 01:37:56;;;;;;;0.20;0.20;;;;;;;;;;5056190;28;20094;-73
2022/07/27 01:40:22;;;;;;;0.38;0.38;;;;;;;;;;5056122;28;20559;-73
2022/07/27 01:42:47;;;;;;;0.30;0.30;;;;;;;;;;5055842;28;20041;-73
2022/07/27 01:45:13;;;;;;;0.43;0.43;;;;;;;;;;5055951;28;20064;-73
2022/07/27 01:47:38;;;;;;;0.30;0.30;;;;;;;;;;5055122;28;20357;-74
2022/07/27 01:50:04;;;;;;;0.45;0.45;;;;;;;;;;5056234;28;20029;-74
2022/07/27 01:52:30;;;;;;;0.20;0.20;;;;;;;;;;5071301;28;20056;-74
2022/07/27 01:54:55;;;;;;;0.35;0.35;;;;;;;;;;5070402;28;20059;-73
2022/07/27 01:57:20;;;;;;;0.60;0.60;;;;;;;;;;5060276;28;20025;-74
2022/07/27 01:59:46;;;;;;;0.20;0.20;;;;;;;;;;5054792;28;20021;-73
2022/07/27 02:02:14;;;;;;;0.73;0.73;;;;;;;;;;5056368;28;20028;-73
2022/07/27 02:04:39;;;;;;;0.50;0.50;;;;;;;;;;5054757;28;20021;-73
2022/07/27 02:07:05;;;;;;;0.40;0.40;;;;;;;;;;5054396;28;20536;-74
2022/07/27 02:09:30;;;;;;;0.15;0.15;;;;;;;;;;5055581;28;20021;-73
2022/07/27 02:14:40;;;;;;;0.20;0.20;;;;;;;;;;5055459;28;20025;-73
2022/07/27 02:17:05;;;;;;;0.17;0.17;;;;;;;;;;5037655;28;20489;-73
2022/07/27 02:19:31;;;;;;;0.30;0.30;;;;;;;;;;5054168;28;20578;-74
2022/07/27 02:21:56;;;;;;;0.20;0.20;;;;;;;;;;5055332;28;20037;-73
2022/07/27 02:24:22;;;;;;;0.40;0.40;;;;;;;;;;5055204;28;20538;-74
2022/07/27 02:26:47;;;;;;;1.45;1.35;;;;;;;;;;5055080;28;20056;-74
2022/07/27 02:29:13;;;;;;;0.20;0.20;;;;;;;;;;5053959;28;20033;-71
2022/07/27 02:31:38;;;;;;;0.30;0.30;;;;;;;;;;5053851;28;20037;-72
2022/07/27 02:34:04;;;;;;;0.30;0.30;;;;;;;;;;5054789;28;20132;-72
2022/07/27 02:36:29;;;;;;;0.25;0.25;;;;;;;;;;5054964;28;20104;-72
2022/07/27 02:38:55;;;;;;;0.20;0.20;;;;;;;;;;5055384;28;20098;-72
2022/07/27 02:41:20;;;;;;;0.38;0.38;;;;;;;;;;5053893;28;20485;-72
2022/07/27 02:43:46;;;;;;;2.10;1.40;;;;;;;;;;5054208;28;20044;-72
2022/07/27 02:46:11;;;;;;;0.20;0.20;;;;;;;;;;5037060;28;20083;-72
2022/07/27 02:48:38;;;;;;;0.13;0.13;;;;;;;;;;5053640;28;20039;-72
2022/07/27 02:51:04;;;;;;;0.20;0.20;;;;;;;;;;5053526;28;20369;-72
2022/07/27 02:53:29;;;;;;;0.20;0.20;;;;;;;;;;5053802;28;20028;-72
2022/07/27 02:55:55;;;;;;;0.20;0.20;;;;;;;;;;5054605;28;20021;-72
2022/07/27 02:58:20;;;;;;;0.40;0.40;;;;;;;;;;5054807;28;20025;-72
2022/07/27 03:00:46;;;;;;;0.20;0.20;;;;;;;;;;5054726;28;20465;-72
2022/07/27 03:03:11;;;;;;;0.95;0.68;;;;;;;;;;5050135;28;20066;-72
2022/07/27 03:05:38;;;;;;;0.20;0.20;;;;;;;;;;5050552;28;20029;-73
2022/07/27 03:08:03;;;;;;;0.55;0.55;;;;;;;;;;5049707;28;20490;-74
2022/07/27 03:10:29;;;;;;;0.30;0.30;;;;;;;;;;5049531;28;20060;-73
2022/07/27 03:13:01;;;;;;;0.13;0.13;;;;;;;;;;5050692;28;20120;-73
2022/07/27 03:15:28;;;;;;;0.30;0.30;;;;;;;;;;5050636;28;20036;-74
2022/07/27 03:17:53;;;;;;;0.20;0.20;;;;;;;;;;5050535;28;20472;-73
2022/07/27 03:20:19;;;;;;;0.20;0.20;;;;;;;;;;5050999;28;20025;-73
2022/07/27 03:22:44;;;;;;;0.20;0.20;;;;;;;;;;5049643;28;20189;-73
2022/07/27 03:25:10;;;;;;;0.20;0.20;;;;;;;;;;5049854;28;20029;-73
2022/07/27 03:27:36;;;;;;;0.30;0.30;;;;;;;;;;5050561;28;20021;-73
2022/07/27 03:30:01;;;;;;;0.30;0.30;;;;;;;;;;5032264;28;20055;-73
2022/07/27 03:32:27;;;;;;;0.20;0.20;;;;;;;;;;5050082;28;20028;-73
2022/07/27 03:34:52;;;;;;;0.20;0.20;;;;;;;;;;5049670;28;20449;-73
2022/07/27 03:37:18;;;;;;;0.30;0.30;;;;;;;;;;5048115;28;20025;-72
2022/07/27 03:39:44;;;;;;;0.20;0.20;;;;;;;;;;5049843;28;20499;-72
2022/07/27 03:42:11;;;;;;;0.20;0.20;;;;;;;;;;5048922;28;20021;-73
2022/07/27 03:44:36;;;;;;;0.20;0.20;;;;;;;;;;5031447;28;20032;-73
2022/07/27 03:47:02;;;;;;;0.20;0.20;;;;;;;;;;5031577;28;20095;-73
2022/07/27 03:49:27;;;;;;;0.25;0.25;;;;;;;;;;5049724;28;20060;-73
2022/07/27 03:51:53;;;;;;;0.20;0.20;;;;;;;;;;5049782;28;20052;-73
2022/07/27 03:54:18;;;;;;;0.20;0.20;;;;;;;;;;5049433;28;20032;-73
2022/07/27 03:56:44;;;;;;;0.20;0.20;;;;;;;;;;5049975;28;20024;-73
2022/07/27 03:59:09;;;;;;;0.20;0.20;;;;;;;;;;5049676;28;20381;-72
2022/07/27 04:01:35;;;;;;;0.20;0.20;;;;;;;;;;5049435;28;20037;-73
2022/07/27 04:04:00;;;;;;;0.20;0.20;;;;;;;;;;5049727;28;20127;-72
2022/07/27 04:06:27;;;;;;;0.20;0.20;;;;;;;;;;5048172;28;20481;-75
2022/07/27 04:08:53;;;;;;;0.30;0.30;;;;;;;;;;5049461;28;20131;-74
2022/07/27 04:11:19;;;;;;;0.20;0.20;;;;;;;;;;5048632;28;20132;-73
2022/07/27 04:13:47;;;;;;;1.38;1.00;;;;;;;;;;5049576;28;20487;-74
2022/07/27 04:16:13;;;;;;;0.20;0.20;;;;;;;;;;5049567;28;20393;-73
2022/07/27 04:18:38;;;;;;;0.68;0.68;;;;;;;;;;5049407;28;20025;-74
2022/07/27 04:21:05;;;;;;;0.20;0.20;;;;;;;;;;5047516;28;20029;-74
2022/07/27 04:23:31;;;;;;;0.25;0.25;;;;;;;;;;5047675;28;20079;-73
2022/07/27 04:25:56;;;;;;;0.30;0.30;;;;;;;;;;5048666;28;20469;-72
2022/07/27 04:28:21;;;;;;;0.20;0.20;;;;;;;;;;5049219;28;20369;-73
2022/07/27 04:30:47;;;;;;;0.20;0.20;;;;;;;;;;5048808;28;20025;-74
2022/07/27 04:33:12;;;;;;;0.20;0.20;;;;;;;;;;5046862;28;20044;-73
2022/07/27 04:35:38;;;;;;;0.20;0.20;;;;;;;;;;5047347;28;20031;-74
2022/07/27 04:38:03;;;;;;;0.20;0.20;;;;;;;;;;5029646;28;20064;-74
2022/07/27 04:40:32;;;;;;;8.57;5.00;;;;;;;;;;5047035;28;20053;-73
2022/07/27 04:42:58;;;;;;;0.75;0.63;;;;;;;;;;5045769;28;20057;-74
2022/07/27 04:45:23;;;;;;;0.20;0.20;;;;;;;;;;5045884;28;20056;-74
2022/07/27 04:47:49;;;;;;;0.20;0.20;;;;;;;;;;5047762;28;20025;-74
2022/07/27 04:50:15;;;;;;;0.20;0.20;;;;;;;;;;5049457;28;20220;-74
2022/07/27 04:52:43;;;;;;;0.30;0.30;;;;;;;;;;5049133;28;20772;-74
2022/07/27 04:55:09;;;;;;;0.20;0.20;;;;;;;;;;5048817;28;20174;-74
2022/07/27 04:57:34;;;;;;;0.20;0.20;;;;;;;;;;5053140;28;20021;-73
2022/07/27 05:00:00;;;;;;;0.20;0.20;;;;;;;;;;5052993;28;20029;-73
2022/07/27 05:02:27;;;;;;;0.38;0.38;;;;;;;;;;5053780;28;20072;-70
2022/07/27 05:04:53;;;;;;;0.38;0.38;;;;;;;;;;5053036;28;20072;-74
2022/07/27 05:07:18;;;;;;;1.65;0.75;;;;;;;;;;5052689;28;20057;-73
2022/07/27 05:09:44;;;;;;;1.35;1.35;;;;;;;;;;5051181;28;20024;-72
2022/07/27 05:12:09;;;;;;;0.20;0.20;;;;;;;;;;5058183;28;20068;-73
2022/07/27 05:14:35;;;;;;;1.95;1.50;;;;;;;;;;5052406;28;20088;-72
2022/07/27 05:17:01;;;;;;;0.43;0.43;;;;;;;;;;5051268;28;20453;-72
2022/07/27 05:19:26;;;;;;;8.15;2.25;;;;;;;;;;5053280;28;20053;-72
2022/07/27 05:21:52;;;;;;;3.65;1.52;;;;;;;;;;5052420;28;20532;-72
2022/07/27 05:24:17;;;;;;;0.25;0.25;;;;;;;;;;5052574;28;20049;-73
2022/07/27 05:26:43;;;;;;;0.20;0.20;;;;;;;;;;5052978;28;20025;-73
2022/07/27 05:29:10;;;;;;;0.90;0.90;;;;;;;;;;5052553;28;20488;-72
2022/07/27 05:31:35;;;;;;;1.13;1.08;;;;;;;;;;5052420;28;20056;-72
2022/07/27 05:34:01;;;;;;;1.60;1.50;;;;;;;;;;5052528;28;20434;-72
2022/07/27 05:36:26;;;;;;;8.43;1.77;;;;;;;;;;5052564;28;20029;-72
2022/07/27 05:38:52;;;;;;;0.30;0.30;;;;;;;;;;5051841;28;20112;-72
2022/07/27 05:41:21;;;;;;;0.50;0.50;;;;;;;;;;5050336;28;20032;-71
2022/07/27 05:43:47;;;;;;;0.40;0.40;;;;;;;;;;5051289;28;20124;-74
2022/07/27 05:46:12;;;;;;;0.75;0.75;;;;;;;;;;5049928;28;20174;-73
2022/07/27 05:48:38;;;;;;;0.28;0.28;;;;;;;;;;5047775;28;20041;-72
2022/07/27 05:51:03;;;;;;;0.30;0.30;;;;;;;;;;5050743;28;20044;-72
2022/07/27 05:53:29;;;;;;;3.28;1.33;;;;;;;;;;5051553;28;20376;-72
2022/07/27 05:55:54;;;;;;;1.13;1.05;;;;;;;;;;5052799;28;20112;-71
2022/07/27 05:58:20;;;;;;;0.30;0.30;;;;;;;;;;5051503;28;20579;-71
2022/07/27 06:00:45;;;;;;;0.35;0.35;;;;;;;;;;5051925;28;20036;-72
2022/07/27 06:03:11;;;;;;;0.68;0.68;;;;;;;;;;5052302;28;20025;-72
2022/07/27 06:05:36;;;;;;;0.88;0.88;;;;;;;;;;5051945;28;20060;-73
2022/07/27 06:08:07;;;;;;;0.30;0.30;;;;;;;;;;5051713;28;20064;-72
2022/07/27 06:10:33;;;;;;;0.30;0.30;;;;;;;;;;5051194;28;20057;-73
2022/07/27 06:13:00;;;;;;;0.50;0.50;;;;;;;;;;5033487;28;20118;-72
2022/07/27 06:15:26;;;;;;;0.40;0.40;;;;;;;;;;5051413;28;20456;-73
2022/07/27 06:17:52;;;;;;;0.50;0.50;;;;;;;;;;5050295;28;20128;-73
2022/07/27 06:20:19;;;;;;;0.70;0.70;;;;;;;;;;5052003;28;20021;-74
2022/07/27 06:22:48;;;;;;;0.30;0.30;;;;;;;;;;5049838;28;20485;-73
2022/07/27 06:25:14;;;;;;;0.30;0.30;;;;;;;;;;5051320;28;20029;-74
2022/07/27 06:27:40;;;;;;;0.50;0.50;;;;;;;;;;5051441;28;20036;-74
2022/07/27 06:30:06;;;;;;;0.30;0.30;;;;;;;;;;5054138;28;20028;-71
2022/07/27 06:32:32;;;;;;;0.75;0.75;;;;;;;;;;5056847;28;20045;-74
2022/07/27 06:34:59;;;;;;;0.50;0.50;;;;;;;;;;5053637;28;20063;-71
2022/07/27 06:37:26;;;;;;;0.38;0.38;;;;;;;;;;5044099;28;20027;-73
2022/07/27 06:39:51;;;;;;;0.32;0.32;;;;;;;;;;5053393;28;20032;-74
2022/07/27 06:42:17;;;;;;;0.40;0.40;;;;;;;;;;5043680;28;20036;-73
2022/07/27 06:44:43;;;;;;;0.30;0.30;;;;;;;;;;5050350;28;20465;-72
2022/07/27 06:47:09;;;;;;;0.30;0.30;;;;;;;;;;5049837;28;20063;-72
2022/07/27 06:49:35;;;;;;;0.30;0.30;;;;;;;;;;5049499;28;20029;-72
2022/07/27 06:52:00;;;;;;;0.40;0.40;;;;;;;;;;5032775;28;20119;-72
2022/07/27 06:54:26;;;;;;;0.30;0.30;;;;;;;;;;5049126;28;20037;-73
2022/07/27 06:56:51;;;;;;;0.32;0.32;;;;;;;;;;5050894;28;20079;-73
2022/07/27 06:59:17;;;;;;;3.00;1.67;;;;;;;;;;5050804;28;20033;-72
2022/07/27 07:01:43;;;;;;;3.22;0.88;;;;;;;;;;5049756;28;20078;-73
2022/07/27 07:04:08;;;;;;;0.50;0.50;;;;;;;;;;5049874;28;20392;-71
2022/07/27 07:06:34;;;;;;;0.70;0.70;;;;;;;;;;5050503;28;20036;-74
2022/07/27 07:09:00;;;;;;;0.30;0.30;;;;;;;;;;5050093;28;20599;-74
2022/07/27 07:11:25;;;;;;;0.40;0.40;;;;;;;;;;5050984;28;20037;-73
2022/07/27 07:13:51;;;;;;;0.65;0.65;;;;;;;;;;5032867;28;20112;-72
2022/07/27 07:16:16;;;;;;;0.30;0.30;;;;;;;;;;5050401;28;20021;-75
2022/07/27 07:18:42;;;;;;;0.40;0.40;;;;;;;;;;5049398;28;20036;-73
2022/07/27 07:21:07;;;;;;;0.50;0.50;;;;;;;;;;5049117;28;20477;-73
2022/07/27 07:23:33;;;;;;;0.40;0.40;;;;;;;;;;5044744;28;20029;-72
2022/07/27 07:25:58;;;;;;;0.40;0.40;;;;;;;;;;5051311;28;20115;-72
2022/07/27 07:28:24;;;;;;;0.35;0.35;;;;;;;;;;5046734;28;20035;-72
2022/07/27 07:30:49;;;;;;;0.55;0.55;;;;;;;;;;5047163;28;20075;-73
2022/07/27 07:33:15;;;;;;;0.30;0.30;;;;;;;;;;5043441;28;20088;-73
2022/07/27 07:35:41;;;;;;;0.38;0.38;;;;;;;;;;5032200;28;20029;-72
2022/07/27 07:38:06;;;;;;;0.40;0.40;;;;;;;;;;5030257;28;20391;-72
2022/07/27 07:40:32;;;;;;;1.55;1.05;;;;;;;;;;5029352;28;20396;-73
2022/07/27 07:42:59;;;;;;;1.15;1.05;;;;;;;;;;5046815;28;20032;-73
2022/07/27 07:45:26;;;;;;;2.83;0.70;;;;;;;;;;5047078;28;20021;-72
2022/07/27 07:47:52;;;;;;;0.70;0.70;;;;;;;;;;5030002;28;20121;-74
2022/07/27 07:50:18;;;;;;;0.30;0.30;;;;;;;;;;5046284;28;20549;-73
2022/07/27 07:52:44;;;;;;;0.50;0.50;;;;;;;;;;5045762;28;20453;-72
2022/07/27 07:55:10;;;;;;;0.60;0.60;;;;;;;;;;5046843;28;20063;-73
2022/07/27 07:57:35;;;;;;;0.43;0.43;;;;;;;;;;5032362;28;20030;-75
2022/07/27 08:00:02;;;;;;;6.22;1.05;;;;;;;;;;5027621;28;20132;-72
2022/07/27 08:02:47;;;;;;;0.60;0.60;;;;;;;;;;5046869;28;20079;-73
2022/07/27 08:05:13;;;;;;;1.65;1.08;;;;;;;;;;5048130;28;20076;-72
2022/07/27 08:07:40;;;;;;;0.50;0.50;;;;;;;;;;5031335;28;20025;-72
2022/07/27 08:10:08;;;;;;;0.47;0.47;;;;;;;;;;5047670;28;20047;-76
2022/07/27 08:12:34;;;;;;;1.10;0.98;;;;;;;;;;5031601;28;20049;-79
2022/07/27 08:15:01;;;;;;;1.58;1.38;;;;;;;;;;5035495;28;20028;-75
2022/07/27 08:17:29;;;;;;;0.90;0.90;;;;;;;;;;5029009;28;20423;-74
2022/07/27 08:19:55;;;;;;;0.55;0.55;;;;;;;;;;5047342;28;20086;-73
2022/07/27 08:22:20;;;;;;;0.50;0.50;;;;;;;;;;5031594;28;20116;-75
2022/07/27 08:24:46;;;;;;;1.50;1.20;;;;;;;;;;5045739;28;20111;-75
2022/07/27 08:27:12;;;;;;;0.55;0.55;;;;;;;;;;5026965;28;20025;-77
2022/07/27 08:29:37;;;;;;;1.00;1.00;;;;;;;;;;5022412;28;20037;-74
2022/07/27 08:32:03;;;;;;;0.60;0.60;;;;;;;;;;5032564;28;20398;-78
2022/07/27 08:34:58;;;;;;;3.80;1.88;;;;;;;;;;5046659;28;20098;-75
2022/07/27 08:37:38;;;;;;;0.40;0.40;;;;;;;;;;5047753;28;20515;-77
2022/07/27 08:40:03;;;;;;;1.95;0.77;;;;;;;;;;5016488;28;20053;-76
2022/07/27 08:42:30;;;;;;;0.30;0.30;;;;;;;;;;5011334;28;20044;-77
2022/07/27 08:44:57;;;;;;;0.50;0.50;;;;;;;;;;5010915;28;20125;-79
2022/07/27 08:47:22;;;;;;;1.00;0.82;;;;;;;;;;5027791;28;20044;-76
2022/07/27 08:49:48;;;;;;;0.43;0.43;;;;;;;;;;5028026;28;20124;-79
2022/07/27 08:52:14;;;;;;;0.60;0.60;;;;;;;;;;5027614;28;20045;-79
2022/07/27 08:54:40;;;;;;;0.73;0.73;;;;;;;;;;5010899;28;20057;-75
2022/07/27 08:57:09;;;;;;;0.65;0.65;;;;;;;;;;5044262;28;20473;-79
2022/07/27 08:59:35;;;;;;;4.22;1.60;;;;;;;;;;5028016;28;20032;-77
2022/07/27 09:02:01;;;;;;;2.90;1.52;;;;;;;;;;5011341;28;20385;-78
2022/07/27 09:04:26;;;;;;;0.70;0.70;;;;;;;;;;5037285;28;20051;-74
2022/07/27 09:06:52;;;;;;;0.60;0.60;;;;;;;;;;5030403;28;20102;-78
2022/07/27 09:09:18;;;;;;;0.63;0.63;;;;;;;;;;5048505;28;20441;-78
2022/07/27 09:12:00;;;;;;;1.08;1.02;;;;;;;;;;5047352;28;20170;-75
2022/07/27 09:14:29;;;;;;;0.73;0.73;;;;;;;;;;5030417;28;20029;-76
2022/07/27 09:16:54;;;;;;;5.82;5.10;;;;;;;;;;5047293;28;20036;-79
2022/07/27 09:19:20;;;;;;;1.38;0.90;;;;;;;;;;5047644;28;20369;-76
2022/07/27 09:21:46;;;;;;;3.50;3.30;;;;;;;;;;5047445;28;20664;-75
2022/07/27 09:24:12;;;;;;;0.88;0.52;;;;;;;;;;5045818;28;20025;-76
2022/07/27 09:26:38;;;;;;;2.75;1.38;;;;;;;;;;5030974;28;20031;-74
2022/07/27 09:29:05;;;;;;;0.50;0.50;;;;;;;;;;5030740;28;20029;-74
2022/07/27 09:31:32;;;;;;;0.95;0.88;;;;;;;;;;5030982;28;20033;-75
2022/07/27 09:33:59;;;;;;;2.03;1.33;;;;;;;;;;5030534;28;20072;-76
2022/07/27 09:36:27;;;;;;;3.28;1.50;;;;;;;;;;5030688;28;20052;-75
2022/07/27 09:38:52;;;;;;;0.70;0.70;;;;;;;;;;5029521;28;20036;-73
2022/07/27 09:41:18;;;;;;;3.25;2.25;;;;;;;;;;5028487;28;20350;-74
2022/07/27 09:43:44;;;;;;;3.17;1.45;;;;;;;;;;5048822;28;20037;-76
2022/07/27 09:46:10;;;;;;;1.02;0.93;;;;;;;;;;5033319;28;20029;-76
2022/07/27 09:48:35;;;;;;;0.63;0.60;;;;;;;;;;5033176;28;20020;-75
2022/07/27 09:51:02;;;;;;;0.68;0.68;;;;;;;;;;5033193;28;20253;-75
2022/07/27 09:53:31;;;;;;;0.73;0.73;;;;;;;;;;5033246;28;20071;-75
2022/07/27 09:56:01;;;;;;;0.70;0.70;;;;;;;;;;5032449;28;20972;-75
2022/07/27 09:58:45;;;;;;;7.80;2.28;;;;;;;;;;5051078;28;20043;-78
2022/07/27 10:01:21;;;;;;;0.60;0.60;;;;;;;;;;5036230;28;20021;-76
2022/07/27 10:03:48;;;;;;;1.25;1.15;;;;;;;;;;5048652;28;20029;-75
2022/07/27 10:06:14;;;;;;;3.28;1.15;;;;;;;;;;5035036;28;20025;-75
2022/07/27 10:08:42;;;;;;;2.92;1.35;;;;;;;;;;5030071;28;20040;-76
2022/07/27 10:11:08;;;;;;;0.60;0.60;;;;;;;;;;5022690;28;20028;-76
2022/07/27 10:13:34;;;;;;;0.63;0.63;;;;;;;;;;5049775;28;20037;-75
2022/07/27 10:16:00;;;;;;;0.38;0.38;;;;;;;;;;5032624;28;20021;-74
2022/07/27 10:18:46;;;;;;;0.40;0.40;;;;;;;;;;5034217;28;20059;-75
2022/07/27 10:21:12;;;;;;;0.60;0.60;;;;;;;;;;5033113;28;20041;-76
2022/07/27 10:23:38;;;;;;;1.55;1.38;;;;;;;;;;5050607;28;20532;-74
2022/07/27 10:26:22;;;;;;;1.55;0.73;;;;;;;;;;5051081;28;20487;-79
2022/07/27 10:28:52;;;;;;;0.50;0.50;;;;;;;;;;5030799;28;20021;-75
2022/07/27 10:31:22;;;;;;;1.02;0.93;;;;;;;;;;5013037;28;20033;-75
2022/07/27 10:33:49;;;;;;;0.93;0.75;;;;;;;;;;5018236;28;20103;-77
2022/07/27 10:36:37;;;;;;;3.83;1.65;;;;;;;;;;5028118;28;20128;-74
2022/07/27 10:39:04;;;;;;;2.13;0.95;;;;;;;;;;5029002;28;20118;-76
2022/07/27 10:41:34;;;;;;;4.05;1.35;;;;;;;;;;5028189;28;20036;-75
2022/07/27 10:44:16;;;;;;;6.30;0.90;;;;;;;;;;5046956;28;20025;-74
2022/07/27 10:46:42;;;;;;;2.38;0.85;;;;;;;;;;5029354;28;20029;-74
2022/07/27 10:49:21;;;;;;;2.50;0.93;;;;;;;;;;5047629;28;20031;-73
2022/07/27 10:51:47;;;;;;;0.40;0.40;;;;;;;;;;5030932;28;20071;-76
2022/07/27 10:54:24;;;;;;;2.90;0.90;;;;;;;;;;5048359;28;20075;-77
2022/07/27 10:56:50;;;;;;;0.38;0.38;;;;;;;;;;5056284;28;20029;-78
2022/07/27 10:59:34;;;;;;;1.00;0.90;;;;;;;;;;5048544;28;20783;-75
2022/07/27 11:02:00;;;;;;;0.60;0.60;;;;;;;;;;5026936;28;20033;-74
2022/07/27 11:04:26;;;;;;;0.60;0.60;;;;;;;;;;5032238;28;20439;-78
2022/07/27 11:06:55;;;;;;;0.75;0.75;;;;;;;;;;5052842;28;20028;-76
2022/07/27 11:09:21;;;;;;;1.70;0.90;;;;;;;;;;5032734;28;20029;-76
2022/07/27 11:11:51;;;;;;;1.08;0.98;;;;;;;;;;5038239;28;20029;-74
2022/07/27 11:14:16;;;;;;;3.72;1.40;;;;;;;;;;5046567;28;20074;-75
2022/07/27 11:16:43;;;;;;;1.58;0.90;;;;;;;;;;5054437;28;20662;-75
2022/07/27 11:19:08;;;;;;;2.17;0.85;;;;;;;;;;5048306;28;20032;-78
2022/07/27 11:21:37;;;;;;;3.05;0.98;;;;;;;;;;5047550;28;20029;-76
2022/07/27 11:24:04;;;;;;;;;;;;;;;;;;5050866;28;20032;-74
2022/07/27 11:26:36;;;;;;;3.28;1.27;;;;;;;;;;5031610;28;19913;-75
2022/07/27 11:29:05;;;;;;;0.80;0.60;;;;;;;;;;5047625;28;20032;-76
2022/07/27 11:31:30;;;;;;;3.67;1.10;;;;;;;;;;5028220;28;20037;-77
2022/07/27 11:33:57;;;;;;;0.50;0.50;;;;;;;;;;5031737;28;20060;-75
2022/07/27 11:36:34;;;;;;;4.05;1.38;;;;;;;;;;5030173;28;20544;-75
2022/07/27 11:39:00;;;;;;;0.70;0.70;;;;;;;;;;5030378;28;20488;-75
2022/07/27 11:41:27;;;;;;;3.92;0.98;;;;;;;;;;5031763;28;20013;-76
2022/07/27 11:43:53;;;;;;;1.42;0.60;;;;;;;;;;5035283;28;20427;-76
2022/07/27 11:46:23;;;;;;;1.98;1.08;;;;;;;;;;5030821;28;20060;-76
2022/07/27 11:48:50;;;;;;;0.95;0.60;;;;;;;;;;5019685;28;20040;-76
2022/07/27 11:51:16;;;;;;;2.80;1.60;;;;;;;;;;5028914;28;20034;-74
2022/07/27 11:53:41;;;;;;;3.05;1.17;;;;;;;;;;5020021;28;20068;-75
2022/07/27 11:56:07;;;;;;;0.85;0.50;;;;;;;;;;5012063;28;20021;-76
2022/07/27 11:58:34;;;;;;;1.58;0.70;;;;;;;;;;5028770;28;20370;-76
2022/07/27 12:00:59;;;;;;;1.15;0.65;;;;;;;;;;5013202;28;20017;-82
2022/07/27 12:03:28;;;;;;;1.23;0.82;;;;;;;;;;5022114;28;20473;-75
2022/07/27 12:05:57;;;;;;;6.05;5.50;;;;;;;;;;5040369;28;20032;-75
2022/07/27 12:08:23;;;;;;;28.27;1.08;;;;;;;;;;5022229;28;20365;-76
2022/07/27 12:10:59;;;;;;;2.47;1.52;;;;;;;;;;5029721;28;20054;-77
2022/07/27 12:13:32;;;;;;;0.40;0.40;;;;;;;;;;5043133;28;20052;-76
2022/07/27 12:15:57;;;;;;;7.68;1.60;;;;;;;;;;5031821;28;20064;-76
2022/07/27 12:18:23;;;;;;;0.98;0.68;;;;;;;;;;5027718;28;20056;-78
2022/07/27 12:20:50;;;;;;;0.82;0.55;;;;;;;;;;5020614;28;20373;-77
2022/07/27 12:23:16;;;;;;;3.97;1.00;;;;;;;;;;5018325;28;20234;-77
2022/07/27 12:25:42;;;;;;;4.63;1.60;;;;;;;;;;5018172;28;20035;-75
2022/07/27 12:28:10;;;;;;;1.35;0.85;;;;;;;;;;5028639;28;20406;-75
2022/07/27 12:30:40;;;;;;;0.50;0.50;;;;;;;;;;5038460;28;20383;-74
2022/07/27 12:33:07;;;;;;;1.88;1.27;;;;;;;;;;5024340;28;20292;-74
2022/07/27 12:35:33;;;;;;;6.65;1.40;;;;;;;;;;5023996;28;20021;-77
2022/07/27 12:38:00;;;;;;;0.77;0.52;;;;;;;;;;5036888;28;20362;-76
2022/07/27 12:40:26;;;;;;;0.60;0.60;;;;;;;;;;5021689;28;20053;-77
2022/07/27 12:42:59;;;;;;;4.68;1.77;;;;;;;;;;5027968;28;20040;-76
2022/07/27 12:45:30;;;;;;;0.90;0.60;;;;;;;;;;5032869;28;20025;-76
2022/07/27 12:48:03;;;;;;;0.65;0.63;;;;;;;;;;5031718;28;20047;-76
2022/07/27 12:50:28;;;;;;;2.72;1.20;;;;;;;;;;5030997;28;20025;-78
2022/07/27 12:52:54;;;;;;;0.60;0.60;;;;;;;;;;5029894;28;20388;-78
2022/07/27 12:55:20;;;;;;;4.15;1.17;;;;;;;;;;5031118;28;20033;-78
2022/07/27 12:57:49;;;;;;;1.67;1.27;;;;;;;;;;5047345;28;20492;-75
2022/07/27 13:00:17;;;;;;;2.42;0.88;;;;;;;;;;5030831;28;20044;-76
2022/07/27 13:02:43;;;;;;;2.55;1.42;;;;;;;;;;5031836;28;20025;-76
2022/07/27 13:05:10;;;;;;;0.60;0.60;;;;;;;;;;5031256;28;20032;-77
2022/07/27 13:07:37;;;;;;;3.90;1.48;;;;;;;;;;5047291;28;20021;-76
2022/07/27 13:10:06;;;;;;;1.25;0.77;;;;;;;;;;5047925;28;20112;-76
2022/07/27 13:12:33;;;;;;;6.97;2.30;;;;;;;;;;5047510;28;20064;-75
2022/07/27 13:14:58;;;;;;;0.43;0.43;;;;;;;;;;5028096;28;20030;-76
2022/07/27 13:17:24;;;;;;;1.58;1.25;;;;;;;;;;5049315;28;20464;-76
2022/07/27 13:19:49;;;;;;;3.63;1.35;;;;;;;;;;5033168;28;20071;-75
2022/07/27 13:22:15;;;;;;;7.72;1.88;;;;;;;;;;5051445;28;20072;-75
2022/07/27 13:24:41;;;;;;;1.83;1.20;;;;;;;;;;5050498;28;20079;-74
2022/07/27 13:27:06;;;;;;;2.15;1.08;;;;;;;;;;5034364;28;20017;-75
2022/07/27 13:29:32;;;;;;;0.32;0.32;;;;;;;;;;5034639;28;20112;-76
2022/07/27 13:31:58;;;;;;;5.45;2.47;;;;;;;;;;5034519;28;20124;-75
2022/07/27 13:34:23;;;;;;;0.70;0.57;;;;;;;;;;5034656;28;20079;-76
2022/07/27 13:36:49;;;;;;;1.52;0.88;;;;;;;;;;5033096;28;20460;-76
2022/07/27 13:39:14;;;;;;;1.63;1.40;;;;;;;;;;5032447;28;20029;-76
2022/07/27 13:41:40;;;;;;;1.30;0.93;;;;;;;;;;5033025;28;20063;-76
2022/07/27 13:44:06;;;;;;;6.32;2.15;;;;;;;;;;5032799;28;20017;-76
2022/07/27 13:46:33;;;;;;;0.93;0.90;;;;;;;;;;5032739;28;20041;-76
2022/07/27 13:48:58;;;;;;;5.50;3.13;;;;;;;;;;5032344;28;20386;-77
2022/07/27 13:51:24;;;;;;;3.60;2.25;;;;;;;;;;5032753;28;20033;-76
2022/07/27 13:53:49;;;;;;;6.10;1.80;;;;;;;;;;5034542;28;20116;-75
2022/07/27 13:56:15;;;;;;;1.05;0.98;;;;;;;;;;5051399;28;20140;-75
2022/07/27 13:58:41;;;;;;;4.40;1.77;;;;;;;;;;5034561;28;20057;-76
2022/07/27 14:01:07;;;;;;;5.18;3.03;;;;;;;;;;5034029;28;20033;-77
2022/07/27 14:03:32;;;;;;;5.57;1.88;;;;;;;;;;5034134;28;20033;-76
2022/07/27 14:05:58;;;;;;;6.03;2.47;;;;;;;;;;5034062;28;20492;-75
2022/07/27 14:08:24;;;;;;;0.90;0.90;;;;;;;;;;5034355;28;20415;-75
2022/07/27 14:10:50;;;;;;;6.22;2.40;;;;;;;;;;5034566;28;20025;-73
2022/07/27 14:13:16;;;;;;;7.07;4.60;;;;;;;;;;5050031;28;20178;-76
2022/07/27 14:15:42;;;;;;;4.60;0.98;;;;;;;;;;5051324;28;20029;-76
2022/07/27 14:18:08;;;;;;;0.47;0.47;;;;;;;;;;5051066;28;20476;-74
2022/07/27 14:20:34;;;;;;;9.25;2.58;;;;;;;;;;5066290;28;20081;-77
2022/07/27 14:23:00;;;;;;;0.50;0.50;;;;;;;;;;5071018;28;20037;-78
2022/07/27 14:25:29;;;;;;;9.48;2.85;;;;;;;;;;5066477;28;20025;-76
2022/07/27 14:27:55;;;;;;;7.32;2.58;;;;;;;;;;5051952;28;20035;-76
2022/07/27 14:30:21;;;;;;;6.75;2.92;;;;;;;;;;5052119;28;20376;-76
2022/07/27 14:32:47;;;;;;;2.92;1.35;;;;;;;;;;5034341;28;20047;-75
2022/07/27 14:35:12;;;;;;;5.38;2.03;;;;;;;;;;5033227;28;20052;-75
2022/07/27 14:37:38;;;;;;;2.17;1.52;;;;;;;;;;5034203;28;20455;-76
2022/07/27 14:40:04;;;;;;;6.57;2.88;;;;;;;;;;5050290;28;20103;-75
2022/07/27 14:42:29;;;;;;;3.13;1.50;;;;;;;;;;5050001;28;20108;-76